sensor_id;sensor_type;location;lat;lon;timestamp;pressure;altitude;pressure_sealevel;temperature;humidity
75438;BME280;64015;49.392;15.582;2023-04-24T00:01:29;94677.75;;;7.93;100.00
75438;BME280;64015;49.392;15.582;2023-04-24T00:03:56;94671.47;;;7.89;100.00
75438;BME280;64015;49.392;15.582;2023-04-24T00:06:25;94670.88;;;7.68;100.00
75438;BME280;64015;49.392;15.582;2023-04-24T00:08:58;94669.69;;;7.84;100.00
75438;BME280;64015;49.392;15.582;2023-04-24T00:11:24;94673.59;;;7.87;100.00
75438;BME280;64015;49.392;15.582;2023-04-24T00:13:50;94664.75;;;7.78;100.00
75438;BME280;64015;49.392;15.582;2023-04-24T00:16:16;94663.13;;;7.82;100.00
75438;BME280;64015;49.392;15.582;2023-04-24T00:18:41;94659.44;;;7.83;100.00
75438;BME280;64015;49.392;15.582;2023-04-24T00:21:07;94667.38;;;7.78;100.00
75438;BME280;64015;49.392;15.582;2023-04-24T00:23:33;94670.66;;;7.88;100.00
75438;BME280;64015;49.392;15.582;2023-04-24T00:25:58;94672.97;;;7.66;100.00
75438;BME280;64015;49.392;15.582;2023-04-24T00:28:24;94676.19;;;7.58;100.00
75438;BME280;64015;49.392;15.582;2023-04-24T00:30:50;94671.16;;;7.62;100.00
75438;BME280;64015;49.392;15.582;2023-04-24T00:33:15;94662.69;;;7.70;100.00
75438;BME280;64015;49.392;15.582;2023-04-24T00:35:41;94660.38;;;7.68;100.00
75438;BME280;64015;49.392;15.582;2023-04-24T00:38:06;94665.28;;;7.75;100.00
75438;BME280;64015;49.392;15.582;2023-04-24T00:40:32;94666.88;;;7.76;100.00
75438;BME280;64015;49.392;15.582;2023-04-24T00:42:58;94665.81;;;7.77;100.00
75438;BME280;64015;49.392;15.582;2023-04-24T00:45:24;94658.22;;;7.70;100.00
75438;BME280;64015;49.392;15.582;2023-04-24T00:47:51;94661.91;;;7.69;100.00
75438;BME280;64015;49.392;15.582;2023-04-24T00:50:17;94654.56;;;7.71;100.00
75438;BME280;64015;49.392;15.582;2023-04-24T00:52:43;94657.00;;;7.63;100.00
75438;BME280;64015;49.392;15.582;2023-04-24T00:55:11;94660.66;;;7.62;100.00
75438;BME280;64015;49.392;15.582;2023-04-24T00:57:38;94659.06;;;7.66;100.00
75438;BME280;64015;49.392;15.582;2023-04-24T01:00:05;94653.47;;;7.77;100.00
75438;BME280;64015;49.392;15.582;2023-04-24T01:02:39;94666.00;;;7.52;100.00
75438;BME280;64015;49.392;15.582;2023-04-24T01:05:07;94663.63;;;7.55;100.00
75438;BME280;64015;49.392;15.582;2023-04-24T01:07:36;94665.47;;;7.55;100.00
75438;BME280;64015;49.392;15.582;2023-04-24T01:10:03;94662.81;;;7.60;100.00
75438;BME280;64015;49.392;15.582;2023-04-24T01:12:28;94660.13;;;7.65;100.00
75438;BME280;64015;49.392;15.582;2023-04-24T01:14:56;94659.44;;;7.54;100.00
75438;BME280;64015;49.392;15.582;2023-04-24T01:17:22;94659.66;;;7.58;100.00
75438;BME280;64015;49.392;15.582;2023-04-24T01:19:50;94672.88;;;7.42;100.00
75438;BME280;64015;49.392;15.582;2023-04-24T01:22:35;94671.53;;;7.11;100.00
75438;BME280;64015;49.392;15.582;2023-04-24T01:25:02;94672.06;;;7.13;100.00
75438;BME280;64015;49.392;15.582;2023-04-24T01:27:28;94675.75;;;7.07;100.00
75438;BME280;64015;49.392;15.582;2023-04-24T01:29:54;94674.06;;;7.26;100.00
75438;BME280;64015;49.392;15.582;2023-04-24T01:32:20;94672.88;;;7.42;100.00
75438;BME280;64015;49.392;15.582;2023-04-24T01:34:46;94679.03;;;7.67;100.00
75438;BME280;64015;49.392;15.582;2023-04-24T01:37:12;94673.69;;;7.77;100.00
75438;BME280;64015;49.392;15.582;2023-04-24T01:39:38;94686.22;;;7.85;100.00
75438;BME280;64015;49.392;15.582;2023-04-24T01:42:04;94699.84;;;7.87;100.00
75438;BME280;64015;49.392;15.582;2023-04-24T01:44:31;94692.81;;;8.06;100.00
75438;BME280;64015;49.392;15.582;2023-04-24T01:46:57;94684.81;;;8.21;100.00
75438;BME280;64015;49.392;15.582;2023-04-24T01:49:22;94692.03;;;8.40;100.00
75438;BME280;64015;49.392;15.582;2023-04-24T01:51:48;94685.59;;;8.51;100.00
75438;BME280;64015;49.392;15.582;2023-04-24T01:54:14;94672.50;;;8.46;100.00
75438;BME280;64015;49.392;15.582;2023-04-24T01:56:43;94658.19;;;8.57;100.00
75438;BME280;64015;49.392;15.582;2023-04-24T01:59:10;94661.53;;;8.63;100.00
75438;BME280;64015;49.392;15.582;2023-04-24T02:01:37;94657.63;;;8.60;100.00
75438;BME280;64015;49.392;15.582;2023-04-24T02:04:06;94650.28;;;8.57;100.00
75438;BME280;64015;49.392;15.582;2023-04-24T02:06:32;94648.59;;;8.66;100.00
75438;BME280;64015;49.392;15.582;2023-04-24T02:08:58;94652.97;;;8.76;100.00
75438;BME280;64015;49.392;15.582;2023-04-24T02:11:43;94652.41;;;8.79;100.00
75438;BME280;64015;49.392;15.582;2023-04-24T02:14:08;94647.16;;;8.79;100.00
75438;BME280;64015;49.392;15.582;2023-04-24T02:16:34;94649.50;;;8.80;100.00
75438;BME280;64015;49.392;15.582;2023-04-24T02:19:02;94638.69;;;8.82;100.00
75438;BME280;64015;49.392;15.582;2023-04-24T02:21:40;94649.94;;;8.87;100.00
75438;BME280;64015;49.392;15.582;2023-04-24T02:24:06;94634.56;;;8.76;100.00
75438;BME280;64015;49.392;15.582;2023-04-24T02:26:31;94632.56;;;8.68;100.00
75438;BME280;64015;49.392;15.582;2023-04-24T02:28:57;94650.25;;;8.81;100.00
75438;BME280;64015;49.392;15.582;2023-04-24T02:31:23;94650.97;;;8.68;100.00
75438;BME280;64015;49.392;15.582;2023-04-24T02:33:48;94647.66;;;8.57;100.00
75438;BME280;64015;49.392;15.582;2023-04-24T02:36:14;94642.34;;;8.62;100.00
75438;BME280;64015;49.392;15.582;2023-04-24T02:38:40;94638.59;;;8.68;100.00
75438;BME280;64015;49.392;15.582;2023-04-24T02:41:07;94641.47;;;8.48;100.00
75438;BME280;64015;49.392;15.582;2023-04-24T02:43:33;94635.81;;;8.59;100.00
75438;BME280;64015;49.392;15.582;2023-04-24T02:45:59;94641.22;;;8.68;100.00
75438;BME280;64015;49.392;15.582;2023-04-24T02:48:25;94641.97;;;8.50;100.00
75438;BME280;64015;49.392;15.582;2023-04-24T02:50:51;94639.84;;;8.52;100.00
75438;BME280;64015;49.392;15.582;2023-04-24T02:53:17;94646.53;;;8.63;100.00
75438;BME280;64015;49.392;15.582;2023-04-24T02:55:42;94644.97;;;8.62;100.00
75438;BME280;64015;49.392;15.582;2023-04-24T02:58:08;94640.91;;;8.51;100.00
75438;BME280;64015;49.392;15.582;2023-04-24T03:00:33;94642.19;;;8.53;100.00
75438;BME280;64015;49.392;15.582;2023-04-24T03:02:59;94632.75;;;8.71;100.00
75438;BME280;64015;49.392;15.582;2023-04-24T03:05:27;94636.50;;;8.89;100.00
75438;BME280;64015;49.392;15.582;2023-04-24T03:07:53;94638.97;;;8.80;100.00
75438;BME280;64015;49.392;15.582;2023-04-24T03:10:19;94640.19;;;8.88;100.00
75438;BME280;64015;49.392;15.582;2023-04-24T03:12:45;94624.47;;;9.02;100.00
75438;BME280;64015;49.392;15.582;2023-04-24T03:15:10;94628.38;;;9.04;100.00
75438;BME280;64015;49.392;15.582;2023-04-24T03:17:36;94620.50;;;9.04;100.00
75438;BME280;64015;49.392;15.582;2023-04-24T03:20:02;94622.75;;;9.11;100.00
75438;BME280;64015;49.392;15.582;2023-04-24T03:22:30;94615.16;;;9.09;100.00
75438;BME280;64015;49.392;15.582;2023-04-24T03:24:58;94605.06;;;9.16;100.00
75438;BME280;64015;49.392;15.582;2023-04-24T03:27:24;94609.31;;;9.12;100.00
75438;BME280;64015;49.392;15.582;2023-04-24T03:29:49;94602.31;;;9.08;100.00
75438;BME280;64015;49.392;15.582;2023-04-24T03:32:19;94606.97;;;9.11;100.00
75438;BME280;64015;49.392;15.582;2023-04-24T03:34:44;94616.53;;;9.07;100.00
75438;BME280;64015;49.392;15.582;2023-04-24T03:37:10;94615.66;;;9.11;100.00
75438;BME280;64015;49.392;15.582;2023-04-24T03:39:36;94608.97;;;9.19;100.00
75438;BME280;64015;49.392;15.582;2023-04-24T03:42:02;94614.16;;;9.24;100.00
75438;BME280;64015;49.392;15.582;2023-04-24T03:44:27;94619.16;;;9.07;100.00
75438;BME280;64015;49.392;15.582;2023-04-24T03:46:53;94622.63;;;9.02;100.00
75438;BME280;64015;49.392;15.582;2023-04-24T03:49:19;94617.44;;;8.97;100.00
75438;BME280;64015;49.392;15.582;2023-04-24T03:51:46;94619.22;;;9.02;100.00
75438;BME280;64015;49.392;15.582;2023-04-24T03:54:11;94615.16;;;9.09;100.00
75438;BME280;64015;49.392;15.582;2023-04-24T03:56:37;94624.56;;;9.15;100.00
75438;BME280;64015;49.392;15.582;2023-04-24T03:59:02;94623.63;;;9.06;100.00
75438;BME280;64015;49.392;15.582;2023-04-24T04:01:28;94625.31;;;8.78;100.00
75438;BME280;64015;49.392;15.582;2023-04-24T04:03:54;94632.59;;;8.86;100.00
75438;BME280;64015;49.392;15.582;2023-04-24T04:06:20;94633.22;;;8.78;100.00
75438;BME280;64015;49.392;15.582;2023-04-24T04:08:46;94626.59;;;8.99;100.00
75438;BME280;64015;49.392;15.582;2023-04-24T04:11:12;94620.00;;;8.83;100.00
75438;BME280;64015;49.392;15.582;2023-04-24T04:13:38;94631.94;;;8.76;100.00
75438;BME280;64015;49.392;15.582;2023-04-24T04:16:04;94630.13;;;8.71;100.00
75438;BME280;64015;49.392;15.582;2023-04-24T04:18:30;94632.75;;;8.71;100.00
75438;BME280;64015;49.392;15.582;2023-04-24T04:20:58;94619.63;;;8.71;100.00
75438;BME280;64015;49.392;15.582;2023-04-24T04:23:44;94619.31;;;8.54;100.00
75438;BME280;64015;49.392;15.582;2023-04-24T04:26:34;94610.03;;;8.62;100.00
75438;BME280;64015;49.392;15.582;2023-04-24T04:29:22;94618.38;;;8.87;100.00
75438;BME280;64015;49.392;15.582;2023-04-24T04:31:48;94625.97;;;9.08;100.00
75438;BME280;64015;49.392;15.582;2023-04-24T04:34:14;94618.09;;;9.08;100.00
75438;BME280;64015;49.392;15.582;2023-04-24T04:36:45;94627.75;;;8.93;100.00
75438;BME280;64015;49.392;15.582;2023-04-24T04:39:14;94628.59;;;8.89;100.00
75438;BME280;64015;49.392;15.582;2023-04-24T04:41:41;94623.97;;;8.81;100.00
75438;BME280;64015;49.392;15.582;2023-04-24T04:44:07;94625.63;;;8.95;100.00
75438;BME280;64015;49.392;15.582;2023-04-24T04:46:34;94621.31;;;9.18;100.00
75438;BME280;64015;49.392;15.582;2023-04-24T04:49:01;94621.53;;;9.41;100.00
75438;BME280;64015;49.392;15.582;2023-04-24T04:51:28;94609.63;;;9.62;100.00
75438;BME280;64015;49.392;15.582;2023-04-24T04:53:54;94618.16;;;9.86;100.00
75438;BME280;64015;49.392;15.582;2023-04-24T04:56:20;94617.19;;;9.96;100.00
75438;BME280;64015;49.392;15.582;2023-04-24T04:58:46;94614.88;;;10.08;100.00
75438;BME280;64015;49.392;15.582;2023-04-24T05:01:11;94620.88;;;10.27;100.00
75438;BME280;64015;49.392;15.582;2023-04-24T05:03:38;94630.91;;;10.39;100.00
75438;BME280;64015;49.392;15.582;2023-04-24T05:06:03;94624.44;;;10.59;100.00
75438;BME280;64015;49.392;15.582;2023-04-24T05:08:30;94635.19;;;10.76;100.00
75438;BME280;64015;49.392;15.582;2023-04-24T05:10:55;94628.94;;;10.72;100.00
75438;BME280;64015;49.392;15.582;2023-04-24T05:13:21;94637.56;;;10.64;100.00
75438;BME280;64015;49.392;15.582;2023-04-24T05:15:47;94635.75;;;10.87;100.00
75438;BME280;64015;49.392;15.582;2023-04-24T05:18:12;94634.97;;;10.86;100.00
75438;BME280;64015;49.392;15.582;2023-04-24T05:20:38;94632.03;;;10.88;100.00
75438;BME280;64015;49.392;15.582;2023-04-24T05:23:04;94641.38;;;11.07;100.00
75438;BME280;64015;49.392;15.582;2023-04-24T05:25:29;94652.22;;;11.06;100.00
75438;BME280;64015;49.392;15.582;2023-04-24T05:27:57;94642.94;;;11.08;100.00
75438;BME280;64015;49.392;15.582;2023-04-24T05:30:23;94648.00;;;10.82;100.00
75438;BME280;64015;49.392;15.582;2023-04-24T05:32:49;94644.53;;;10.96;100.00
75438;BME280;64015;49.392;15.582;2023-04-24T05:35:14;94657.03;;;11.04;100.00
75438;BME280;64015;49.392;15.582;2023-04-24T05:37:42;94650.09;;;11.08;100.00
75438;BME280;64015;49.392;15.582;2023-04-24T05:40:09;94657.91;;;10.99;100.00
75438;BME280;64015;49.392;15.582;2023-04-24T05:42:34;94657.06;;;10.90;100.00
75438;BME280;64015;49.392;15.582;2023-04-24T05:45:00;94660.09;;;10.70;100.00
75438;BME280;64015;49.392;15.582;2023-04-24T05:47:26;94656.09;;;10.72;100.00
75438;BME280;64015;49.392;15.582;2023-04-24T05:49:52;94656.69;;;10.56;100.00
75438;BME280;64015;49.392;15.582;2023-04-24T05:52:18;94654.72;;;10.47;100.00
75438;BME280;64015;49.392;15.582;2023-04-24T05:54:44;94664.38;;;10.38;100.00
75438;BME280;64015;49.392;15.582;2023-04-24T05:57:10;94666.63;;;10.31;100.00
75438;BME280;64015;49.392;15.582;2023-04-24T05:59:37;94671.34;;;10.34;100.00
75438;BME280;64015;49.392;15.582;2023-04-24T06:02:07;94661.38;;;10.18;100.00
75438;BME280;64015;49.392;15.582;2023-04-24T06:04:33;94666.38;;;10.14;100.00
75438;BME280;64015;49.392;15.582;2023-04-24T06:06:59;94656.88;;;10.18;100.00
75438;BME280;64015;49.392;15.582;2023-04-24T06:09:31;94660.88;;;10.29;100.00
75438;BME280;64015;49.392;15.582;2023-04-24T06:11:56;94658.81;;;10.40;100.00
75438;BME280;64015;49.392;15.582;2023-04-24T06:14:23;94659.72;;;10.49;100.00
75438;BME280;64015;49.392;15.582;2023-04-24T06:16:49;94659.81;;;10.71;99.86
75438;BME280;64015;49.392;15.582;2023-04-24T06:19:15;94658.25;;;10.70;98.20
75438;BME280;64015;49.392;15.582;2023-04-24T06:21:40;94660.50;;;10.63;99.81
75438;BME280;64015;49.392;15.582;2023-04-24T06:24:06;94662.81;;;10.78;99.71
75438;BME280;64015;49.392;15.582;2023-04-24T06:26:32;94674.28;;;10.74;100.00
75438;BME280;64015;49.392;15.582;2023-04-24T06:28:58;94661.63;;;10.84;100.00
75438;BME280;64015;49.392;15.582;2023-04-24T06:31:25;94663.50;;;10.57;100.00
75438;BME280;64015;49.392;15.582;2023-04-24T06:33:50;94668.31;;;10.55;100.00
75438;BME280;64015;49.392;15.582;2023-04-24T06:36:16;94662.16;;;10.73;100.00
75438;BME280;64015;49.392;15.582;2023-04-24T06:38:42;94668.78;;;10.57;100.00
75438;BME280;64015;49.392;15.582;2023-04-24T06:41:09;94667.81;;;10.53;100.00
75438;BME280;64015;49.392;15.582;2023-04-24T06:43:34;94668.91;;;10.52;100.00
75438;BME280;64015;49.392;15.582;2023-04-24T06:46:00;94671.41;;;10.57;98.55
75438;BME280;64015;49.392;15.582;2023-04-24T06:48:27;94675.44;;;10.68;97.14
75438;BME280;64015;49.392;15.582;2023-04-24T06:50:53;94660.22;;;10.65;95.91
75438;BME280;64015;49.392;15.582;2023-04-24T06:53:19;94665.28;;;10.61;98.30
75438;BME280;64015;49.392;15.582;2023-04-24T06:55:44;94665.50;;;10.65;96.83
75438;BME280;64015;49.392;15.582;2023-04-24T06:58:11;94671.16;;;10.72;97.63
75438;BME280;64015;49.392;15.582;2023-04-24T07:00:37;94676.22;;;10.82;95.30
75438;BME280;64015;49.392;15.582;2023-04-24T07:03:03;94674.06;;;10.84;96.63
75438;BME280;64015;49.392;15.582;2023-04-24T07:05:31;94670.03;;;10.87;95.13
75438;BME280;64015;49.392;15.582;2023-04-24T07:08:02;94673.97;;;10.75;97.93
75438;BME280;64015;49.392;15.582;2023-04-24T07:10:28;94669.97;;;10.92;97.48
75438;BME280;64015;49.392;15.582;2023-04-24T07:12:55;94670.75;;;10.65;99.26
75438;BME280;64015;49.392;15.582;2023-04-24T07:15:32;94672.59;;;10.78;98.63
75438;BME280;64015;49.392;15.582;2023-04-24T07:17:57;94669.53;;;11.12;94.55
75438;BME280;64015;49.392;15.582;2023-04-24T07:20:23;94667.41;;;11.00;94.62
75438;BME280;64015;49.392;15.582;2023-04-24T07:22:49;94669.34;;;10.95;95.02
75438;BME280;64015;49.392;15.582;2023-04-24T07:25:14;94669.44;;;11.03;94.43
75438;BME280;64015;49.392;15.582;2023-04-24T07:27:40;94669.97;;;10.92;95.02
75438;BME280;64015;49.392;15.582;2023-04-24T07:30:07;94666.72;;;10.95;95.38
75438;BME280;64015;49.392;15.582;2023-04-24T07:32:32;94666.63;;;11.00;96.04
75438;BME280;64015;49.392;15.582;2023-04-24T07:34:58;94667.97;;;10.97;94.58
75438;BME280;64015;49.392;15.582;2023-04-24T07:37:24;94666.16;;;10.84;95.40
75438;BME280;64015;49.392;15.582;2023-04-24T07:39:50;94671.63;;;10.74;97.16
75438;BME280;64015;49.392;15.582;2023-04-24T07:42:15;94679.44;;;10.79;95.72
75438;BME280;64015;49.392;15.582;2023-04-24T07:44:41;94678.78;;;10.73;97.43
75438;BME280;64015;49.392;15.582;2023-04-24T07:47:07;94688.53;;;10.59;98.05
75438;BME280;64015;49.392;15.582;2023-04-24T07:49:33;94692.63;;;10.52;98.93
75438;BME280;64015;49.392;15.582;2023-04-24T07:52:00;94687.25;;;10.57;98.96
75438;BME280;64015;49.392;15.582;2023-04-24T07:54:28;94694.56;;;10.60;98.94
75438;BME280;64015;49.392;15.582;2023-04-24T07:56:54;94691.34;;;10.49;99.30
75438;BME280;64015;49.392;15.582;2023-04-24T07:59:20;94707.56;;;10.42;100.00
75438;BME280;64015;49.392;15.582;2023-04-24T08:01:45;94699.06;;;10.45;100.00
75438;BME280;64015;49.392;15.582;2023-04-24T08:04:11;94701.63;;;10.64;99.12
75438;BME280;64015;49.392;15.582;2023-04-24T08:06:36;94700.34;;;10.62;98.42
75438;BME280;64015;49.392;15.582;2023-04-24T08:09:02;94692.63;;;10.52;98.83
75438;BME280;64015;49.392;15.582;2023-04-24T08:11:28;94709.97;;;10.39;98.61
75438;BME280;64015;49.392;15.582;2023-04-24T08:13:54;94701.41;;;10.33;99.64
75438;BME280;64015;49.392;15.582;2023-04-24T08:16:20;94702.97;;;10.34;99.92
75438;BME280;64015;49.392;15.582;2023-04-24T08:18:49;94705.09;;;10.32;99.46
75438;BME280;64015;49.392;15.582;2023-04-24T08:21:15;94702.19;;;10.34;99.41
75438;BME280;64015;49.392;15.582;2023-04-24T08:23:43;94706.16;;;10.18;99.03
75438;BME280;64015;49.392;15.582;2023-04-24T08:26:08;94721.50;;;10.29;99.24
75438;BME280;64015;49.392;15.582;2023-04-24T08:28:34;94709.47;;;10.23;98.70
75438;BME280;64015;49.392;15.582;2023-04-24T08:31:01;94715.81;;;10.22;99.11
75438;BME280;64015;49.392;15.582;2023-04-24T08:33:27;94715.31;;;10.20;99.35
75438;BME280;64015;49.392;15.582;2023-04-24T08:35:58;94715.38;;;10.15;100.00
75438;BME280;64015;49.392;15.582;2023-04-24T08:38:26;94713.03;;;10.00;100.00
75438;BME280;64015;49.392;15.582;2023-04-24T08:40:52;94723.44;;;9.91;100.00
75438;BME280;64015;49.392;15.582;2023-04-24T08:43:18;94736.44;;;9.83;100.00
75438;BME280;64015;49.392;15.582;2023-04-24T08:45:46;94726.22;;;9.81;100.00
75438;BME280;64015;49.392;15.582;2023-04-24T08:48:12;94740.81;;;9.73;100.00
75438;BME280;64015;49.392;15.582;2023-04-24T08:50:40;94735.41;;;9.65;100.00
75438;BME280;64015;49.392;15.582;2023-04-24T08:53:08;94739.75;;;9.56;100.00
75438;BME280;64015;49.392;15.582;2023-04-24T08:55:34;94737.91;;;9.56;100.00
75438;BME280;64015;49.392;15.582;2023-04-24T08:58:01;94739.03;;;9.50;100.00
75438;BME280;64015;49.392;15.582;2023-04-24T09:00:28;94747.50;;;9.47;100.00
75438;BME280;64015;49.392;15.582;2023-04-24T09:02:55;94745.50;;;9.39;100.00
75438;BME280;64015;49.392;15.582;2023-04-24T09:05:22;94746.84;;;9.36;100.00
75438;BME280;64015;49.392;15.582;2023-04-24T09:07:55;94789.41;;;9.25;100.00
75438;BME280;64015;49.392;15.582;2023-04-24T09:10:23;94758.22;;;9.13;100.00
75438;BME280;64015;49.392;15.582;2023-04-24T09:12:53;94757.22;;;9.09;100.00
75438;BME280;64015;49.392;15.582;2023-04-24T09:15:20;94746.53;;;9.01;100.00
75438;BME280;64015;49.392;15.582;2023-04-24T09:17:46;94754.59;;;8.85;100.00
75438;BME280;64015;49.392;15.582;2023-04-24T09:20:12;94749.47;;;8.75;100.00
75438;BME280;64015;49.392;15.582;2023-04-24T09:22:38;94775.34;;;8.63;100.00
75438;BME280;64015;49.392;15.582;2023-04-24T09:25:12;94762.19;;;8.63;100.00
75438;BME280;64015;49.392;15.582;2023-04-24T09:27:45;94763.63;;;8.79;100.00
75438;BME280;64015;49.392;15.582;2023-04-24T09:30:11;94764.06;;;8.86;100.00
75438;BME280;64015;49.392;15.582;2023-04-24T09:32:37;94768.19;;;8.92;100.00
75438;BME280;64015;49.392;15.582;2023-04-24T09:35:09;94762.59;;;8.99;100.00
75438;BME280;64015;49.392;15.582;2023-04-24T09:37:37;94757.44;;;9.13;100.00
75438;BME280;64015;49.392;15.582;2023-04-24T09:42:38;94755.81;;;9.17;100.00
75438;BME280;64015;49.392;15.582;2023-04-24T09:45:11;94758.78;;;9.10;100.00
75438;BME280;64015;49.392;15.582;2023-04-24T09:47:38;94750.69;;;9.07;100.00
75438;BME280;64015;49.392;15.582;2023-04-24T09:52:44;94762.78;;;9.08;100.00
75438;BME280;64015;49.392;15.582;2023-04-24T09:55:16;94750.69;;;9.07;100.00
75438;BME280;64015;49.392;15.582;2023-04-24T09:57:49;94754.22;;;8.97;100.00
75438;BME280;64015;49.392;15.582;2023-04-24T10:00:20;94760.94;;;9.08;100.00
75438;BME280;64015;49.392;15.582;2023-04-24T10:03:14;94753.44;;;8.96;100.00
75438;BME280;64015;49.392;15.582;2023-04-24T10:05:40;94748.16;;;8.96;100.00
75438;BME280;64015;49.392;15.582;2023-04-24T10:08:08;94749.75;;;8.97;100.00
75438;BME280;64015;49.392;15.582;2023-04-24T10:10:38;94751.75;;;9.06;100.00
75438;BME280;64015;49.392;15.582;2023-04-24T10:13:05;94747.69;;;9.13;100.00
75438;BME280;64015;49.392;15.582;2023-04-24T10:15:32;94754.25;;;9.16;100.00
75438;BME280;64015;49.392;15.582;2023-04-24T10:17:59;94755.19;;;9.25;100.00
75438;BME280;64015;49.392;15.582;2023-04-24T10:20:27;94759.66;;;9.24;100.00
75438;BME280;64015;49.392;15.582;2023-04-24T10:22:57;94756.75;;;9.26;100.00
75438;BME280;64015;49.392;15.582;2023-04-24T10:25:25;94748.28;;;9.29;100.00
75438;BME280;64015;49.392;15.582;2023-04-24T10:27:52;94748.09;;;9.44;98.91
75438;BME280;64015;49.392;15.582;2023-04-24T10:30:19;94750.22;;;9.42;100.00
75438;BME280;64015;49.392;15.582;2023-04-24T10:32:45;94752.72;;;9.52;99.46
75438;BME280;64015;49.392;15.582;2023-04-24T10:35:15;94754.94;;;9.45;97.61
75438;BME280;64015;49.392;15.582;2023-04-24T10:37:49;94754.69;;;9.42;98.06
75438;BME280;64015;49.392;15.582;2023-04-24T10:40:31;94752.44;;;9.54;97.01
75438;BME280;64015;49.392;15.582;2023-04-24T10:42:59;94754.19;;;9.58;97.02
75438;BME280;64015;49.392;15.582;2023-04-24T10:45:27;94746.16;;;9.50;96.40
75438;BME280;64015;49.392;15.582;2023-04-24T10:48:01;94762.47;;;9.70;95.21
75438;BME280;64015;49.392;15.582;2023-04-24T10:50:28;94762.66;;;9.74;92.99
75438;BME280;64015;49.392;15.582;2023-04-24T10:53:06;94760.03;;;9.74;94.51
75438;BME280;64015;49.392;15.582;2023-04-24T10:55:52;94762.63;;;9.93;93.53
75438;BME280;64015;49.392;15.582;2023-04-24T10:58:23;94758.66;;;9.95;92.98
75438;BME280;64015;49.392;15.582;2023-04-24T11:00:59;94758.03;;;9.85;90.58
75438;BME280;64015;49.392;15.582;2023-04-24T11:11:15;94755.34;;;10.22;89.52
75438;BME280;64015;49.392;15.582;2023-04-24T11:14:02;94751.94;;;10.22;88.84
75438;BME280;64015;49.392;15.582;2023-04-24T11:16:42;94755.63;;;10.21;88.59
75438;BME280;64015;49.392;15.582;2023-04-24T11:24:24;94763.50;;;10.39;89.03
75438;BME280;64015;49.392;15.582;2023-04-24T11:26:55;94766.00;;;10.63;91.10
75438;BME280;64015;49.392;15.582;2023-04-24T11:29:23;94773.28;;;10.53;87.87
75438;BME280;64015;49.392;15.582;2023-04-24T11:35:21;94771.19;;;10.82;89.43
75438;BME280;64015;49.392;15.582;2023-04-24T11:37:52;94768.81;;;10.94;86.61
75438;BME280;64015;49.392;15.582;2023-04-24T11:40:22;94773.44;;;11.02;87.50
75438;BME280;64015;49.392;15.582;2023-04-24T11:42:50;94771.28;;;11.18;84.16
75438;BME280;64015;49.392;15.582;2023-04-24T11:45:18;94762.00;;;10.93;84.90
75438;BME280;64015;49.392;15.582;2023-04-24T11:47:44;94763.56;;;10.94;85.32
75438;BME280;64015;49.392;15.582;2023-04-24T11:50:13;94760.81;;;11.27;84.40
75438;BME280;64015;49.392;15.582;2023-04-24T11:52:43;94764.06;;;11.10;85.58
75438;BME280;64015;49.392;15.582;2023-04-24T11:57:45;94769.81;;;11.26;85.72
75438;BME280;64015;49.392;15.582;2023-04-24T12:00:19;94762.16;;;11.38;85.60
75438;BME280;64015;49.392;15.582;2023-04-24T12:02:46;94756.91;;;11.60;85.82
75438;BME280;64015;49.392;15.582;2023-04-24T12:05:25;94758.78;;;11.95;83.62
75438;BME280;64015;49.392;15.582;2023-04-24T12:07:52;94757.84;;;11.91;82.24
75438;BME280;64015;49.392;15.582;2023-04-24T12:10:22;94754.72;;;12.12;83.73
75438;BME280;64015;49.392;15.582;2023-04-24T12:12:48;94754.16;;;12.46;84.63
75438;BME280;64015;49.392;15.582;2023-04-24T12:15:16;94743.53;;;12.15;81.21
75438;BME280;64015;49.392;15.582;2023-04-24T12:17:42;94749.78;;;12.41;82.35
75438;BME280;64015;49.392;15.582;2023-04-24T12:20:09;94742.75;;;12.67;83.02
75438;BME280;64015;49.392;15.582;2023-04-24T12:22:48;94747.81;;;12.86;78.31
75438;BME280;64015;49.392;15.582;2023-04-24T12:25:18;94728.28;;;13.13;79.59
75438;BME280;64015;49.392;15.582;2023-04-24T12:27:44;94733.09;;;13.11;76.30
75438;BME280;64015;49.392;15.582;2023-04-24T12:30:15;94735.91;;;13.06;77.30
75438;BME280;64015;49.392;15.582;2023-04-24T12:32:48;94733.47;;;13.35;76.53
75438;BME280;64015;49.392;15.582;2023-04-24T12:35:18;94724.81;;;13.78;75.59
75438;BME280;64015;49.392;15.582;2023-04-24T12:37:45;94722.72;;;13.23;73.64
75438;BME280;64015;49.392;15.582;2023-04-24T12:40:12;94719.94;;;13.45;72.19
75438;BME280;64015;49.392;15.582;2023-04-24T12:42:45;94717.94;;;13.86;72.43
75438;BME280;64015;49.392;15.582;2023-04-24T12:45:12;94717.00;;;13.73;71.84
75438;BME280;64015;49.392;15.582;2023-04-24T12:47:38;94712.00;;;13.54;71.65
75438;BME280;64015;49.392;15.582;2023-04-24T12:50:05;94714.81;;;13.49;72.59
75438;BME280;64015;49.392;15.582;2023-04-24T12:56:32;94699.84;;;13.44;70.66
75438;BME280;64015;49.392;15.582;2023-04-24T12:58:58;94712.16;;;13.49;72.04
75438;BME280;64015;49.392;15.582;2023-04-24T13:01:24;94705.91;;;13.54;70.07
75438;BME280;64015;49.392;15.582;2023-04-24T13:03:49;94698.13;;;13.57;72.55
75438;BME280;64015;49.392;15.582;2023-04-24T13:06:15;94699.44;;;13.12;72.41
75438;BME280;64015;49.392;15.582;2023-04-24T13:08:41;94689.28;;;13.62;72.81
75438;BME280;64015;49.392;15.582;2023-04-24T13:11:07;94689.72;;;13.55;70.00
75438;BME280;64015;49.392;15.582;2023-04-24T13:13:32;94682.88;;;13.71;70.13
75438;BME280;64015;49.392;15.582;2023-04-24T13:15:58;94688.31;;;13.40;68.65
75438;BME280;64015;49.392;15.582;2023-04-24T13:18:24;94685.06;;;13.52;67.76